Time;durP1;ratioP1;P1;durP2;ratioP2;P2;SDS_P1;SDS_P2;PMS_P1;PMS_P2;Temp;Humidity;BMP_temperature;BMP_pressure;BME280_temperature;BME280_humidity;BME280_pressure;Samples;Min_cycle;Max_cycle;Signal;HPM_P1;HPM_P2
2021/01/14 00:00:30;;;;;;;25.03;23.50;;;1.20;1.00;;;;;;5013487;28;20472;-78
2021/01/14 00:02:56;;;;;;;24.05;22.75;;;1.30;1.00;;;;;;5013430;28;20168;-78
2021/01/14 00:05:22;;;;;;;26.13;24.83;;;1.30;1.00;;;;;;5013469;28;20179;-78
2021/01/14 00:07:49;;;;;;;26.03;25.03;;;1.20;1.00;;;;;;5013554;28;20940;-78
2021/01/14 00:10:15;;;;;;;23.92;22.67;;;1.20;1.00;;;;;;5013199;28;20195;-78
2021/01/14 00:12:42;;;;;;;22.85;21.85;;;1.20;1.00;;;;;;5013650;28;20203;-78
2021/01/14 00:15:09;;;;;;;21.73;20.33;;;1.20;1.00;;;;;;5013798;28;20262;-77
2021/01/14 00:17:35;;;;;;;23.70;22.10;;;1.20;1.00;;;;;;5013284;28;20626;-77
2021/01/14 00:20:00;;;;;;;24.67;23.40;;;1.20;1.00;;;;;;5013259;28;20221;-77
2021/01/14 00:22:26;;;;;;;40.00;37.33;;;1.20;1.00;;;;;;5013621;28;20213;-78
2021/01/14 00:24:51;;;;;;;29.07;27.00;;;1.20;1.00;;;;;;5013301;28;20175;-78
2021/01/14 00:27:17;;;;;;;22.30;21.10;;;1.30;1.00;;;;;;5013452;28;20198;-78
2021/01/14 00:29:42;;;;;;;28.33;26.60;;;1.30;1.00;;;;;;5044939;28;20286;-78
2021/01/14 00:32:09;;;;;;;20.77;19.37;;;1.40;1.00;;;;;;5013560;28;20175;-78
2021/01/14 00:34:35;;;;;;;29.98;28.35;;;1.40;1.00;;;;;;5013183;28;20172;-78
2021/01/14 00:39:44;;;;;;;26.90;25.80;;;1.50;1.00;;;;;;5013454;28;20421;-78
2021/01/14 00:42:17;;;;;;;22.83;21.93;;;1.50;1.00;;;;;;5048336;28;20166;-78
2021/01/14 00:44:43;;;;;;;24.70;23.70;;;1.60;1.00;;;;;;5016683;28;20602;-78
2021/01/14 00:47:08;;;;;;;26.83;25.73;;;1.60;1.00;;;;;;5016690;28;20179;-78
2021/01/14 00:49:34;;;;;;;21.57;20.30;;;1.60;1.00;;;;;;5016473;28;20199;-78
2021/01/14 00:51:59;;;;;;;18.73;17.93;;;1.70;1.00;;;;;;5048262;28;20203;-78
2021/01/14 00:54:25;;;;;;;19.90;19.20;;;1.70;1.00;;;;;;5016493;28;20168;-78
2021/01/14 00:56:51;;;;;;;24.30;23.00;;;1.70;1.00;;;;;;5048183;28;20206;-78
2021/01/14 00:59:16;;;;;;;29.53;28.33;;;1.70;1.00;;;;;;5048171;28;20222;-78
2021/01/14 01:01:42;;;;;;;29.23;28.23;;;1.70;1.00;;;;;;5016361;28;20633;-78
2021/01/14 01:04:10;;;;;;;35.53;33.37;;;1.70;1.00;;;;;;5048207;28;20604;-78
2021/01/14 01:06:39;;;;;;;30.77;29.67;;;1.70;1.00;;;;;;5014930;28;20275;-78
2021/01/14 01:09:06;;;;;;;30.88;29.58;;;1.70;1.00;;;;;;5015992;28;20677;-77
2021/01/14 01:11:32;;;;;;;33.60;31.90;;;1.80;1.00;;;;;;5016007;28;20241;-77
2021/01/14 01:13:58;;;;;;;30.43;29.33;;;1.70;1.00;;;;;;5016478;28;20629;-77
2021/01/14 01:16:24;;;;;;;31.20;29.90;;;1.70;1.00;;;;;;5016155;28;20206;-78
2021/01/14 01:18:50;;;;;;;20.38;19.45;;;1.70;1.00;;;;;;5016330;28;20662;-78
2021/01/14 01:21:16;;;;;;;22.30;20.77;;;1.70;1.00;;;;;;5015944;28;20189;-78
2021/01/14 01:23:42;;;;;;;27.20;26.17;;;1.70;1.00;;;;;;5047616;28;20532;-78
2021/01/14 01:26:07;;;;;;;26.17;24.97;;;1.60;1.00;;;;;;5016015;28;20171;-78
2021/01/14 01:28:33;;;;;;;22.27;21.23;;;1.60;1.00;;;;;;5047691;28;20533;-78
2021/01/14 01:30:59;;;;;;;26.70;25.40;;;1.50;1.00;;;;;;5047504;28;20505;-78
2021/01/14 01:33:28;;;;;;;21.77;20.77;;;1.50;1.00;;;;;;5015687;28;20525;-78
2021/01/14 01:35:55;;;;;;;23.05;21.95;;;1.50;1.00;;;;;;5015886;28;20162;-78
2021/01/14 01:38:21;;;;;;;22.00;20.77;;;1.50;1.00;;;;;;5015953;28;20284;-78
2021/01/14 01:40:57;;;;;;;26.55;25.38;;;1.40;1.00;;;;;;5015527;28;20183;-78
2021/01/14 01:43:23;;;;;;;23.63;22.83;;;1.40;1.00;;;;;;5015798;28;20170;-78
2021/01/14 01:45:49;;;;;;;30.00;29.00;;;1.40;1.00;;;;;;5015421;28;20275;-78
2021/01/14 01:48:19;;;;;;;20.73;20.03;;;1.40;1.00;;;;;;5015374;28;20633;-78
2021/01/14 01:50:46;;;;;;;22.77;21.60;;;1.40;1.00;;;;;;5015307;28;20617;-78
2021/01/14 01:53:12;;;;;;;27.50;26.50;;;1.40;1.00;;;;;;5046054;28;20233;-78
2021/01/14 01:55:38;;;;;;;27.50;26.23;;;1.40;1.00;;;;;;5015126;28;20178;-78
2021/01/14 01:58:05;;;;;;;28.55;27.60;;;1.40;1.00;;;;;;5015244;28;20245;-78
2021/01/14 02:00:31;;;;;;;27.73;26.45;;;1.40;1.00;;;;;;5015572;28;20171;-78
2021/01/14 02:02:57;;;;;;;31.77;30.35;;;1.30;1.00;;;;;;5015085;28;20179;-78
2021/01/14 02:05:23;;;;;;;30.27;28.47;;;1.30;1.00;;;;;;5015041;28;20229;-78
2021/01/14 02:07:58;;;;;;;31.37;30.30;;;1.30;1.00;;;;;;5013644;28;20201;-78
2021/01/14 02:10:46;;;;;;;30.65;29.02;;;1.30;1.00;;;;;;5015250;28;20615;-78
2021/01/14 02:13:29;;;;;;;29.23;28.00;;;1.30;1.00;;;;;;5014985;28;20179;-78
2021/01/14 02:15:58;;;;;;;25.90;24.75;;;1.30;1.00;;;;;;5046638;28;20197;-78
2021/01/14 02:18:25;;;;;;;24.23;23.35;;;1.30;1.00;;;;;;5015319;28;20242;-78
2021/01/14 02:20:58;;;;;;;29.40;28.02;;;1.30;1.00;;;;;;5015018;28;20221;-78
2021/01/14 02:23:41;;;;;;;34.35;33.10;;;1.30;1.00;;;;;;5014797;28;20611;-78
2021/01/14 02:26:20;;;;;;;28.52;27.52;;;1.20;1.00;;;;;;5014884;28;20159;-78
2021/01/14 02:28:47;;;;;;;26.63;25.73;;;1.30;1.00;;;;;;5014579;28;20195;-78
2021/01/14 02:31:14;;;;;;;29.90;28.60;;;1.30;1.00;;;;;;5014690;28;20230;-78
2021/01/14 02:33:40;;;;;;;25.33;24.30;;;1.30;1.00;;;;;;5046515;28;20605;-78
2021/01/14 02:36:06;;;;;;;24.27;23.37;;;1.30;1.00;;;;;;5014478;28;20198;-78
2021/01/14 02:38:32;;;;;;;23.75;22.05;;;1.30;1.00;;;;;;5014413;28;20480;-78
2021/01/14 02:40:58;;;;;;;25.25;24.02;;;1.40;1.00;;;;;;5014476;28;20239;-78
2021/01/14 02:43:24;;;;;;;27.00;25.27;;;1.50;1.00;;;;;;5046228;28;20171;-78
2021/01/14 02:45:49;;;;;;;20.70;19.90;;;1.60;1.00;;;;;;5046474;28;20203;-78
2021/01/14 02:48:19;;;;;;;23.63;22.33;;;1.60;1.00;;;;;;5014360;28;20238;-78
2021/01/14 02:50:48;;;;;;;18.33;17.60;;;1.70;1.00;;;;;;5014785;28;20266;-78
2021/01/14 02:53:15;;;;;;;22.13;21.25;;;1.70;1.00;;;;;;5014240;28;20526;-78
2021/01/14 02:55:41;;;;;;;27.10;25.90;;;1.70;1.00;;;;;;5046031;28;20179;-78
2021/01/14 02:58:07;;;;;;;23.23;22.07;;;1.80;1.00;;;;;;5014096;28;20224;-78
2021/01/14 03:00:33;;;;;;;27.23;25.83;;;1.70;1.00;;;;;;5045898;28;20449;-77
2021/01/14 03:02:59;;;;;;;28.40;27.10;;;1.80;1.00;;;;;;5013729;28;20638;-77
2021/01/14 03:05:24;;;;;;;28.27;26.67;;;1.70;1.00;;;;;;5014013;28;20187;-77
2021/01/14 03:07:50;;;;;;;25.33;24.33;;;1.70;1.00;;;;;;5013996;28;20653;-77
2021/01/14 03:10:16;;;;;;;24.00;22.90;;;1.70;1.00;;;;;;5014241;28;20210;-77
2021/01/14 03:12:41;;;;;;;25.07;23.97;;;1.70;1.00;;;;;;5014021;28;20566;-77
2021/01/14 03:15:07;;;;;;;22.10;20.93;;;1.80;1.00;;;;;;5014098;28;20167;-77
2021/01/14 03:17:37;;;;;;;27.13;26.02;;;1.80;1.00;;;;;;5014037;28;20237;-78
2021/01/14 03:20:05;;;;;;;28.23;26.70;;;1.80;1.00;;;;;;5013810;28;20223;-78
2021/01/14 03:22:31;;;;;;;21.98;20.95;;;1.80;1.00;;;;;;5013977;28;20181;-78
2021/01/14 03:24:57;;;;;;;23.07;22.00;;;1.80;1.00;;;;;;5014113;28;20593;-78
2021/01/14 03:27:22;;;;;;;21.83;20.70;;;1.90;1.00;;;;;;5014530;28;20642;-78
2021/01/14 03:29:48;;;;;;;25.40;24.00;;;1.90;1.00;;;;;;5045549;28;20202;-78
2021/01/14 03:42:32;;;;;;;17.27;16.38;;;2.00;1.00;;;;;;5013993;28;20231;-78
2021/01/14 03:44:57;;;;;;;20.67;19.55;;;2.00;1.00;;;;;;5013674;28;20167;-78
2021/01/14 03:47:26;;;;;;;21.57;20.17;;;1.90;1.00;;;;;;5013648;28;20250;-78
2021/01/14 03:49:52;;;;;;;29.35;27.75;;;1.90;1.00;;;;;;5259637;22;20233;-78
2021/01/14 03:52:18;;;;;;;26.73;25.33;;;1.90;1.00;;;;;;5033442;28;20174;-78
2021/01/14 03:54:47;;;;;;;24.60;23.42;;;1.90;1.00;;;;;;5033934;28;20169;-78
2021/01/14 03:57:13;;;;;;;23.05;22.08;;;2.00;1.00;;;;;;5032667;28;20178;-78
2021/01/14 03:59:39;;;;;;;22.00;20.63;;;2.00;1.00;;;;;;5019425;28;20197;-78
2021/01/14 04:02:07;;;;;;;23.70;22.40;;;2.00;1.00;;;;;;5014244;28;20258;-78
2021/01/14 04:04:37;;;;;;;20.63;19.08;;;2.00;1.00;;;;;;5013693;28;20438;-78
2021/01/14 04:07:11;;;;;;;21.75;20.65;;;2.10;1.00;;;;;;5013606;28;20617;-78
2021/01/14 04:09:37;;;;;;;20.48;19.25;;;2.10;1.00;;;;;;5054522;22;20573;-78
2021/01/14 04:12:04;;;;;;;22.35;21.15;;;2.10;1.00;;;;;;5012285;28;20202;-78
2021/01/14 04:14:30;;;;;;;22.67;21.58;;;2.10;1.00;;;;;;5013645;28;20175;-78
2021/01/14 04:16:56;;;;;;;26.38;25.00;;;2.10;1.00;;;;;;5016652;28;20202;-78
2021/01/14 04:19:21;;;;;;;29.73;28.20;;;2.10;1.00;;;;;;5015865;28;20191;-78
2021/01/14 04:21:47;;;;;;;28.03;26.30;;;2.10;1.00;;;;;;5017143;28;20179;-78
2021/01/14 04:24:13;;;;;;;27.92;26.42;;;2.10;1.00;;;;;;5017078;28;20156;-78
2021/01/14 04:26:39;;;;;;;27.83;26.63;;;2.10;1.00;;;;;;5017519;28;20576;-78
2021/01/14 04:29:05;;;;;;;22.03;20.83;;;2.00;1.00;;;;;;5015752;28;20195;-78
2021/01/14 04:31:31;;;;;;;20.95;19.75;;;2.10;1.00;;;;;;5016820;28;20704;-78
2021/01/14 04:33:57;;;;;;;23.37;21.77;;;2.10;1.00;;;;;;5016945;28;20179;-78
2021/01/14 04:36:22;;;;;;;26.30;24.87;;;2.20;1.00;;;;;;5016855;28;20546;-78
2021/01/14 04:38:48;;;;;;;22.53;21.07;;;2.10;1.00;;;;;;5016796;28;20198;-78
2021/01/14 04:41:17;;;;;;;26.10;24.10;;;2.10;1.00;;;;;;5017148;28;20437;-78
2021/01/14 04:43:44;;;;;;;24.25;22.50;;;2.10;1.00;;;;;;5016110;28;20183;-78
2021/01/14 04:46:11;;;;;;;23.95;22.55;;;2.10;1.00;;;;;;5016573;28;20657;-78
2021/01/14 04:48:42;;;;;;;27.38;24.90;;;2.20;1.00;;;;;;5016655;28;20202;-78
2021/01/14 04:51:18;;;;;;;22.15;21.02;;;2.10;1.00;;;;;;5017160;28;20662;-78
2021/01/14 04:53:46;;;;;;;23.50;21.30;;;2.10;1.00;;;;;;5016843;28;20163;-78
2021/01/14 04:56:14;;;;;;;23.98;22.48;;;2.10;1.00;;;;;;5016782;28;20198;-78
2021/01/14 04:58:42;;;;;;;20.65;19.48;;;2.20;1.00;;;;;;5015190;28;20195;-78
2021/01/14 05:01:19;;;;;;;21.27;20.15;;;2.20;1.00;;;;;;5017008;28;20630;-78
2021/01/14 05:03:47;;;;;;;24.08;22.75;;;2.20;1.00;;;;;;5017118;28;20576;-78
2021/01/14 05:06:25;;;;;;;28.15;26.85;;;2.30;1.00;;;;;;5016634;28;20179;-78
2021/01/14 05:09:03;;;;;;;28.35;26.65;;;2.30;1.00;;;;;;5016177;28;20206;-78
2021/01/14 05:11:43;;;;;;;26.95;25.65;;;2.30;1.00;;;;;;5016452;28;20637;-78
2021/01/14 05:14:09;;;;;;;22.60;21.50;;;2.30;1.00;;;;;;5015042;28;20195;-78
2021/01/14 05:16:35;;;;;;;25.40;24.10;;;2.30;1.00;;;;;;5016211;28;20206;-78
2021/01/14 05:19:01;;;;;;;29.15;27.20;;;2.40;1.00;;;;;;5093646;22;20219;-78
2021/01/14 05:21:33;;;;;;;30.83;29.10;;;2.40;1.00;;;;;;5015603;28;20677;-78
2021/01/14 05:24:10;;;;;;;30.13;28.17;;;2.40;1.00;;;;;;5015993;28;20399;-77
2021/01/14 05:26:36;;;;;;;31.98;30.40;;;2.40;1.00;;;;;;5013231;28;20637;-78
2021/01/14 05:29:19;;;;;;;29.50;27.20;;;2.50;1.00;;;;;;5016015;28;20383;-78
2021/01/14 05:31:45;;;;;;;33.03;30.83;;;2.50;1.00;;;;;;5015791;28;20273;-78
2021/01/14 05:34:13;;;;;;;26.52;24.98;;;2.50;1.00;;;;;;5015730;28;20163;-78
2021/01/14 05:36:56;;;;;;;22.63;20.90;;;2.50;1.00;;;;;;5014344;28;20244;-78
2021/01/14 05:39:24;;;;;;;21.08;19.67;;;2.50;1.00;;;;;;5014358;28;20559;-78
2021/01/14 05:41:51;;;;;;;33.20;31.15;;;2.50;1.00;;;;;;5014373;28;20261;-78
2021/01/14 05:44:17;;;;;;;28.38;26.30;;;2.50;1.00;;;;;;5015481;28;20222;-78
2021/01/14 05:46:43;;;;;;;23.50;22.30;;;2.40;1.00;;;;;;5014442;28;20178;-78
2021/01/14 05:49:10;;;;;;;25.30;23.60;;;2.40;1.00;;;;;;5015309;28;20249;-78
2021/01/14 05:51:36;;;;;;;24.75;22.65;;;2.40;1.00;;;;;;5015440;28;20187;-78
2021/01/14 05:54:04;;;;;;;23.40;22.00;;;2.40;1.00;;;;;;5015690;28;20279;-78
2021/01/14 05:56:49;;;;;;;19.98;18.38;;;2.40;1.10;;;;;;5015500;28;20171;-78
2021/01/14 05:59:16;;;;;;;22.52;20.83;;;2.40;1.40;;;;;;5015189;28;20198;-78
2021/01/14 06:01:57;;;;;;;22.17;20.77;;;2.40;1.90;;;;;;5015301;28;20171;-78
2021/01/14 06:04:32;;;;;;;20.75;19.10;;;2.40;1.50;;;;;;5015598;28;20258;-78
2021/01/14 06:07:04;;;;;;;20.35;19.13;;;2.40;1.60;;;;;;5015217;28;20171;-78
2021/01/14 06:09:40;;;;;;;22.20;20.42;;;2.40;1.70;;;;;;5013897;28;20206;-78
2021/01/14 06:12:10;;;;;;;27.60;25.10;;;2.40;1.70;;;;;;5014950;28;20214;-78
2021/01/14 06:14:36;;;;;;;23.42;21.67;;;2.40;2.30;;;;;;5015077;28;20250;-78
2021/01/14 06:17:06;;;;;;;23.67;22.17;;;2.40;2.00;;;;;;5014906;28;20214;-78
2021/01/14 06:19:33;;;;;;;23.73;21.67;;;2.40;5.40;;;;;;5014810;28;20934;-78
2021/01/14 06:21:59;;;;;;;21.73;20.02;;;2.40;2.00;;;;;;5013914;28;20190;-78
2021/01/14 06:24:26;;;;;;;23.33;21.67;;;2.40;2.20;;;;;;5015196;28;20535;-78
2021/01/14 06:27:18;;;;;;;25.15;23.50;;;2.50;2.40;;;;;;5014651;28;20183;-78
2021/01/14 06:29:44;;;;;;;21.80;20.10;;;2.40;2.00;;;;;;5013687;28;20242;-78
2021/01/14 06:32:17;;;;;;;26.13;24.67;;;2.40;1.90;;;;;;5014655;28;20239;-78
2021/01/14 06:34:45;;;;;;;29.73;27.75;;;2.50;2.00;;;;;;5014886;28;20156;-78
2021/01/14 06:37:17;;;;;;;25.15;23.55;;;2.50;2.10;;;;;;5013207;28;20171;-78
2021/01/14 06:39:52;;;;;;;28.85;27.38;;;2.50;2.20;;;;;;5014185;28;20607;-78
2021/01/14 06:42:22;;;;;;;25.90;24.50;;;2.50;2.50;;;;;;5014704;28;20189;-78
2021/01/14 06:45:09;;;;;;;32.05;29.42;;;2.60;2.80;;;;;;5014481;28;20282;-78
2021/01/14 06:47:44;;;;;;;36.92;35.13;;;2.60;2.50;;;;;;5014225;28;20206;-78
2021/01/14 06:50:17;;;;;;;30.08;28.27;;;2.60;2.60;;;;;;5014214;28;20213;-78
2021/01/14 06:53:09;;;;;;;26.10;24.17;;;2.60;3.40;;;;;;5014331;28;20151;-78
2021/01/14 06:55:36;;;;;;;27.45;25.45;;;2.50;2.60;;;;;;5014173;28;20217;-78
2021/01/14 06:58:07;;;;;;;23.33;21.70;;;2.40;3.00;;;;;;5014135;28;20167;-78
2021/01/14 07:00:38;;;;;;;20.73;19.35;;;2.50;4.00;;;;;;5014148;28;20182;-78
2021/01/14 07:03:13;;;;;;;29.52;27.65;;;2.40;3.80;;;;;;5014166;28;20163;-78
2021/01/14 07:05:40;;;;;;;28.17;26.13;;;2.40;4.00;;;;;;5012887;28;20273;-78
2021/01/14 07:08:38;;;;;;;29.98;28.45;;;2.40;4.70;;;;;;5013936;28;20171;-78
2021/01/14 07:11:11;;;;;;;29.23;27.73;;;2.40;4.30;;;;;;4995360;28;20227;-78
2021/01/14 07:13:47;;;;;;;26.02;24.13;;;2.40;4.80;;;;;;5012681;28;20179;-78
2021/01/14 07:16:17;;;;;;;29.02;27.08;;;2.30;5.10;;;;;;5014078;28;20158;-78
2021/01/14 07:18:46;;;;;;;28.35;26.67;;;2.30;5.60;;;;;;5013745;28;20749;-78
2021/01/14 07:21:35;;;;;;;28.90;27.40;;;2.40;6.00;;;;;;5013929;28;20612;-77
2021/01/14 07:24:19;;;;;;;26.40;24.75;;;2.40;6.00;;;;;;5013815;28;20227;-77
2021/01/14 07:26:58;;;;;;;28.65;26.80;;;2.40;5.20;;;;;;5013750;28;20232;-77
2021/01/14 07:29:24;;;;;;;34.05;32.22;;;2.30;5.30;;;;;;5013754;28;20194;-77
2021/01/14 07:31:51;;;;;;;29.83;28.03;;;2.30;5.30;;;;;;5013991;28;20190;-77
2021/01/14 07:34:44;;;;;;;26.33;24.77;;;2.30;5.50;;;;;;5014201;28;20426;-77
2021/01/14 07:37:14;;;;;;;29.20;27.48;;;2.40;5.10;;;;;;5013843;28;20170;-78
2021/01/14 07:39:58;;;;;;;38.53;36.70;;;2.40;6.00;;;;;;5014831;28;20183;-78
2021/01/14 07:42:29;;;;;;;30.77;29.02;;;2.40;6.10;;;;;;5014130;28;20164;-77
2021/01/14 07:45:03;;;;;;;31.33;29.63;;;2.40;5.50;;;;;;5014008;28;20175;-77
2021/01/14 07:47:36;;;;;;;41.10;39.00;;;2.50;9.10;;;;;;5014037;28;20180;-77
2021/01/14 07:50:20;;;;;;;32.72;30.83;;;2.50;6.10;;;;;;5014634;28;20190;-77
2021/01/14 07:52:47;;;;;;;36.08;33.88;;;2.40;5.20;;;;;;4998335;28;20176;-76
2021/01/14 07:55:31;;;;;;;36.25;34.15;;;2.40;5.30;;;;;;4997901;28;20248;-77
2021/01/14 07:58:23;;;;;;;34.10;31.67;;;2.50;5.90;;;;;;4998386;28;20159;-76
2021/01/14 08:01:08;;;;;;;35.35;33.17;;;2.40;6.20;;;;;;4997868;28;20199;-77
2021/01/14 08:03:34;;;;;;;31.15;29.08;;;2.40;6.50;;;;;;4996530;28;20282;-77
2021/01/14 08:06:35;;;;;;;30.15;28.55;;;2.40;6.60;;;;;;4997659;28;20179;-77
2021/01/14 08:09:08;;;;;;;30.67;28.70;;;2.40;6.20;;;;;;4996419;28;20203;-77
2021/01/14 08:11:35;;;;;;;26.90;25.10;;;2.50;6.80;;;;;;4997888;28;20184;-77
2021/01/14 08:14:11;;;;;;;27.42;25.85;;;2.50;7.00;;;;;;4997608;28;20291;-77
2021/01/14 08:16:41;;;;;;;32.28;30.48;;;2.50;7.00;;;;;;4996194;28;20176;-77
2021/01/14 08:19:27;;;;;;;36.30;34.40;;;2.60;7.10;;;;;;4997240;28;20234;-77
2021/01/14 08:21:58;;;;;;;35.35;33.00;;;2.60;7.80;;;;;;4997757;28;20168;-77
2021/01/14 08:24:42;;;;;;;29.88;28.02;;;2.60;8.10;;;;;;4997380;28;20231;-77
2021/01/14 08:27:13;;;;;;;29.48;27.45;;;2.60;7.40;;;;;;4997145;28;20178;-75
2021/01/14 08:30:00;;;;;;;33.40;31.63;;;2.60;7.90;;;;;;4997680;28;20187;-74
2021/01/14 08:32:35;;;;;;;27.42;25.63;;;2.70;8.20;;;;;;4994754;28;20226;-75
2021/01/14 08:35:12;;;;;;;26.25;23.85;;;2.60;11.60;;;;;;4996028;28;20163;-75
2021/01/14 08:37:54;;;;;;;27.67;25.60;;;2.70;8.60;;;;;;4995805;28;20160;-75
2021/01/14 08:40:22;;;;;;;26.52;25.13;;;2.70;8.10;;;;;;4997088;28;20666;-75
2021/01/14 08:43:05;;;;;;;28.65;26.85;;;2.80;8.40;;;;;;4997045;28;20182;-75
2021/01/14 08:45:45;;;;;;;26.73;25.02;;;2.80;8.00;;;;;;4995936;28;20183;-75
2021/01/14 08:48:11;;;;;;;27.85;22.77;;;2.80;9.30;;;;;;4993917;28;20187;-74
2021/01/14 08:50:45;;;;;;;24.40;22.50;;;2.90;10.30;;;;;;4994663;28;20208;-75
2021/01/14 08:53:12;;;;;;;23.80;22.02;;;2.90;10.00;;;;;;4994901;28;20159;-74
2021/01/14 08:55:40;;;;;;;25.75;24.13;;;3.00;10.10;;;;;;5000508;28;20180;-74
2021/01/14 08:58:07;;;;;;;33.47;31.77;;;3.00;10.60;;;;;;4995629;28;20175;-75
2021/01/14 09:00:39;;;;;;;29.67;28.15;;;3.00;11.20;;;;;;4995157;28;20267;-75
2021/01/14 09:03:05;;;;;;;28.90;27.42;;;3.00;11.60;;;;;;4995389;28;20176;-75
2021/01/14 09:05:31;;;;;;;38.37;36.20;;;3.10;12.80;;;;;;4995584;28;20206;-75
2021/01/14 09:08:04;;;;;;;37.42;35.13;;;3.10;12.90;;;;;;4995335;28;20411;-75
2021/01/14 09:10:43;;;;;;;36.08;34.17;;;3.10;13.20;;;;;;4995600;28;20549;-75
2021/01/14 09:13:12;;;;;;;33.72;32.22;;;3.20;13.60;;;;;;4995379;28;20172;-74
2021/01/14 09:15:38;;;;;;;29.90;28.48;;;3.20;14.30;;;;;;4994772;28;20195;-74
2021/01/14 09:18:04;;;;;;;30.98;29.48;;;3.20;14.50;;;;;;4995150;28;20168;-75
2021/01/14 09:20:30;;;;;;;31.83;30.13;;;3.20;15.00;;;;;;4995200;28;20278;-75
2021/01/14 09:23:17;;;;;;;29.97;28.43;;;3.20;15.20;;;;;;4994113;28;20267;-74
2021/01/14 09:25:44;;;;;;;34.10;32.30;;;3.20;15.40;;;;;;4995530;28;20626;-75
2021/01/14 09:28:10;;;;;;;29.58;27.75;;;3.30;15.30;;;;;;4995158;28;20639;-75
2021/01/14 09:30:36;;;;;;;30.75;29.05;;;3.30;16.00;;;;;;4997161;28;20203;-75
2021/01/14 09:33:01;;;;;;;30.60;28.40;;;3.30;15.90;;;;;;5003219;28;20172;-75
2021/01/14 09:35:27;;;;;;;32.17;30.13;;;3.30;15.30;;;;;;4994888;28;20251;-75
2021/01/14 09:37:56;;;;;;;33.20;31.20;;;3.30;14.00;;;;;;4994922;28;20532;-75
2021/01/14 09:40:22;;;;;;;29.08;27.33;;;3.30;15.40;;;;;;4994454;28;20403;-74
2021/01/14 09:42:50;;;;;;;24.60;23.57;;;3.40;17.00;;;;;;4994949;28;20176;-74
2021/01/14 09:45:20;;;;;;;28.30;26.90;;;3.40;16.30;;;;;;4993298;28;20989;-74
2021/01/14 09:47:50;;;;;;;28.80;27.40;;;3.50;16.70;;;;;;4993157;28;20188;-74
2021/01/14 09:50:17;;;;;;;28.15;26.52;;;3.30;16.00;;;;;;4994701;28;20226;-75
2021/01/14 09:52:44;;;;;;;28.33;26.83;;;3.30;16.80;;;;;;4994012;28;20563;-74
2021/01/14 09:55:12;;;;;;;27.15;25.75;;;3.40;17.60;;;;;;4994836;28;20532;-74
2021/01/14 09:57:45;;;;;;;26.50;25.02;;;3.30;16.10;;;;;;4994562;28;20219;-75
2021/01/14 10:00:13;;;;;;;25.77;24.20;;;3.40;16.70;;;;;;4994382;28;20183;-75
2021/01/14 10:02:40;;;;;;;25.10;23.70;;;3.40;16.40;;;;;;4994655;28;20236;-75
2021/01/14 10:05:12;;;;;;;27.45;25.85;;;3.30;17.40;;;;;;4994598;28;20250;-75
2021/01/14 10:07:45;;;;;;;28.60;27.20;;;3.20;17.30;;;;;;4993132;28;20646;-75
2021/01/14 10:10:11;;;;;;;29.40;27.80;;;3.20;19.00;;;;;;4994306;28;20650;-75
2021/01/14 10:12:36;;;;;;;34.67;32.30;;;3.20;18.40;;;;;;4993899;28;20187;-75
2021/01/14 10:15:13;;;;;;;28.50;26.63;;;3.10;18.30;;;;;;4993701;28;20426;-75
2021/01/14 10:17:40;;;;;;;32.22;30.48;;;3.10;17.30;;;;;;4994217;28;20160;-75
2021/01/14 10:20:08;;;;;;;26.95;25.42;;;3.20;18.80;;;;;;4994078;28;20214;-75
2021/01/14 10:22:35;;;;;;;24.05;22.33;;;3.20;17.90;;;;;;4992948;28;20265;-75
2021/01/14 10:25:08;;;;;;;25.63;23.65;;;3.20;19.20;;;;;;4994246;28;20177;-75
2021/01/14 10:27:34;;;;;;;27.58;25.55;;;3.10;18.70;;;;;;4993326;28;20206;-75
2021/01/14 10:30:17;;;;;;;29.67;27.88;;;3.20;20.80;;;;;;4993947;28;20206;-75
2021/01/14 10:32:42;;;;;;;29.58;27.83;;;3.40;22.90;;;;;;4994074;28;20659;-74
2021/01/14 10:35:08;;;;;;;28.77;26.80;;;3.40;23.60;;;;;;4991464;28;20315;-74
2021/01/14 10:37:35;;;;;;;29.43;27.93;;;3.50;24.40;;;;;;4993163;28;20172;-74
2021/01/14 10:40:17;;;;;;;27.30;25.70;;;3.50;23.80;;;;;;4993713;28;20963;-73
2021/01/14 10:42:47;;;;;;;26.52;24.95;;;3.50;22.30;;;;;;4991501;28;20182;-74
2021/01/14 10:45:14;;;;;;;25.88;24.48;;;3.50;22.40;;;;;;4993169;28;20163;-74
2021/01/14 10:47:41;;;;;;;26.13;24.42;;;3.40;21.90;;;;;;4993276;28;20300;-75
2021/01/14 10:50:25;;;;;;;30.95;29.27;;;3.50;23.60;;;;;;4993240;28;20184;-75
2021/01/14 10:52:59;;;;;;;31.05;29.17;;;3.50;24.90;;;;;;4993526;28;20313;-74
2021/01/14 10:55:28;;;;;;;26.65;25.20;;;3.60;26.90;;;;;;4993497;28;20167;-75
2021/01/14 10:57:59;;;;;;;26.10;23.98;;;3.60;25.50;;;;;;4992771;28;20183;-74
2021/01/14 11:00:39;;;;;;;23.55;22.10;;;3.60;25.10;;;;;;4993644;28;20533;-75
2021/01/14 11:03:07;;;;;;;25.15;23.75;;;3.70;24.70;;;;;;4993729;28;20661;-74
2021/01/14 11:05:46;;;;;;;29.20;27.50;;;3.70;25.60;;;;;;4993452;28;20279;-75
2021/01/14 11:08:13;;;;;;;28.25;26.45;;;3.60;25.20;;;;;;4993391;28;20174;-75
2021/01/14 11:10:40;;;;;;;25.35;23.77;;;3.70;26.50;;;;;;4992780;28;20203;-75
2021/01/14 11:13:17;;;;;;;28.75;26.70;;;3.80;27.80;;;;;;4993403;28;20199;-76
2021/01/14 11:15:43;;;;;;;30.40;28.70;;;3.90;28.70;;;;;;4993455;28;20214;-75
2021/01/14 11:18:10;;;;;;;28.92;26.95;;;4.00;29.90;;;;;;4993808;28;20160;-76
2021/01/14 11:20:36;;;;;;;28.85;26.75;;;4.10;28.80;;;;;;4993999;28;20180;-77
2021/01/14 11:23:02;;;;;;;29.83;28.00;;;4.00;28.00;;;;;;4994129;28;20215;-76
2021/01/14 11:25:30;;;;;;;24.05;22.55;;;4.00;28.70;;;;;;4993254;28;20659;-76
2021/01/14 11:27:56;;;;;;;27.67;25.80;;;3.70;29.40;;;;;;4993683;28;20176;-76
2021/01/14 11:30:22;;;;;;;29.63;27.73;;;3.70;31.00;;;;;;4993677;28;20191;-76
2021/01/14 11:32:48;;;;;;;32.25;30.75;;;3.60;28.80;;;;;;4993656;28;20187;-76
2021/01/14 11:35:14;;;;;;;36.00;34.10;;;3.50;28.80;;;;;;4990690;28;20168;-77
2021/01/14 11:37:41;;;;;;;34.00;32.40;;;3.40;32.10;;;;;;4993517;28;20168;-77
2021/01/14 11:40:07;;;;;;;25.33;23.52;;;3.40;31.50;;;;;;4993958;28;20445;-77
2021/01/14 11:42:33;;;;;;;29.23;27.77;;;3.50;38.70;;;;;;4994225;28;20180;-77
2021/01/14 11:44:59;;;;;;;32.53;30.50;;;3.50;34.50;;;;;;4991941;28;20190;-76
2021/01/14 11:47:24;;;;;;;27.77;26.27;;;3.50;33.90;;;;;;4993683;28;20404;-77
2021/01/14 11:49:50;;;;;;;24.33;22.93;;;3.60;34.00;;;;;;4993627;28;20188;-75
2021/01/14 11:52:16;;;;;;;25.30;23.90;;;3.50;31.70;;;;;;4993645;28;20443;-76
2021/01/14 11:54:42;;;;;;;32.63;31.03;;;3.50;32.30;;;;;;4992478;28;20180;-75
2021/01/14 11:57:09;;;;;;;31.33;29.30;;;3.50;32.50;;;;;;4993234;28;20242;-76
2021/01/14 11:59:34;;;;;;;25.15;23.75;;;3.60;34.60;;;;;;4993404;28;20191;-76
2021/01/14 12:02:00;;;;;;;27.70;26.30;;;3.60;32.80;;;;;;4993526;28;20191;-76
2021/01/14 12:04:26;;;;;;;23.70;22.23;;;3.70;38.30;;;;;;4993591;28;20225;-76
2021/01/14 12:06:52;;;;;;;28.30;26.77;;;3.80;39.60;;;;;;4993366;28;20168;-76
2021/01/14 12:09:19;;;;;;;22.70;21.20;;;3.80;36.20;;;;;;4993608;28;20235;-76
2021/01/14 12:11:44;;;;;;;24.25;22.70;;;3.90;37.70;;;;;;4993532;28;20697;-76
2021/01/14 12:14:10;;;;;;;23.70;22.20;;;4.00;38.50;;;;;;4993576;28;20199;-77
2021/01/14 12:16:35;;;;;;;26.87;24.67;;;4.10;38.20;;;;;;4992026;28;20176;-77
2021/01/14 12:19:01;;;;;;;30.43;28.67;;;4.10;37.70;;;;;;4993396;28;20227;-77
2021/01/14 12:21:27;;;;;;;29.93;28.40;;;4.20;38.00;;;;;;4993282;28;20248;-76
2021/01/14 12:23:52;;;;;;;24.50;22.80;;;4.30;35.40;;;;;;4993619;28;20601;-77
2021/01/14 12:26:19;;;;;;;27.47;25.63;;;4.20;38.30;;;;;;4993279;28;20634;-76
2021/01/14 12:28:45;;;;;;;25.10;23.80;;;4.20;38.00;;;;;;4992048;28;20225;-76
2021/01/14 12:31:11;;;;;;;24.70;23.30;;;4.30;41.20;;;;;;4993155;28;20674;-76
2021/01/14 12:33:36;;;;;;;27.20;25.70;;;4.40;44.20;;;;;;4991159;28;20255;-76
2021/01/14 12:36:02;;;;;;;33.23;31.50;;;4.30;41.80;;;;;;4993334;28;20175;-76
2021/01/14 12:38:28;;;;;;;30.30;28.90;;;4.20;38.40;;;;;;4996229;28;20219;-75
2021/01/14 12:40:54;;;;;;;33.95;32.05;;;4.30;41.20;;;;;;4995693;28;20422;-76
2021/01/14 12:43:19;;;;;;;35.27;33.43;;;4.30;41.50;;;;;;4996880;28;20176;-77
2021/01/14 12:45:45;;;;;;;36.33;34.63;;;4.30;41.30;;;;;;4994286;28;20168;-76
2021/01/14 12:48:10;;;;;;;39.57;37.40;;;4.40;42.30;;;;;;4996030;28;20172;-76
2021/01/14 12:50:40;;;;;;;37.13;34.90;;;4.50;43.90;;;;;;4996848;28;20204;-76
2021/01/14 12:53:06;;;;;;;34.08;32.28;;;4.40;41.70;;;;;;4996666;28;20168;-77
2021/01/14 12:55:31;;;;;;;31.83;30.20;;;4.30;39.40;;;;;;4996403;28;20250;-77
2021/01/14 12:57:57;;;;;;;29.00;27.60;;;4.40;42.10;;;;;;4996512;28;20164;-77
2021/01/14 13:00:23;;;;;;;32.67;30.87;;;4.30;41.30;;;;;;4995532;28;20180;-77
2021/01/14 13:02:48;;;;;;;26.63;25.07;;;4.30;43.90;;;;;;4995350;28;20174;-76
2021/01/14 13:05:14;;;;;;;30.87;28.47;;;4.30;46.60;;;;;;4996438;28;20799;-76
2021/01/14 13:07:39;;;;;;;32.83;31.03;;;4.40;43.50;;;;;;4996385;28;20528;-76